sensor_id;sensor_type;location;lat;lon;timestamp;pressure;altitude;pressure_sealevel;temperature;humidity
19748;BME280;10032;51.386;12.516;2023-06-22T00:02:05;100465.28;;;21.59;100.00
19748;BME280;10032;51.386;12.516;2023-06-22T00:04:31;100462.53;;;21.59;100.00
19748;BME280;10032;51.386;12.516;2023-06-22T00:06:56;100460.91;;;21.58;100.00
19748;BME280;10032;51.386;12.516;2023-06-22T00:09:21;100468.81;;;21.51;100.00
19748;BME280;10032;51.386;12.516;2023-06-22T00:11:47;100468.31;;;21.49;100.00
19748;BME280;10032;51.386;12.516;2023-06-22T00:14:12;100460.84;;;21.50;100.00
19748;BME280;10032;51.386;12.516;2023-06-22T00:16:38;100459.72;;;21.51;100.00
19748;BME280;10032;51.386;12.516;2023-06-22T00:19:03;100454.03;;;21.47;100.00
19748;BME280;10032;51.386;12.516;2023-06-22T00:21:29;100453.19;;;21.47;100.00
19748;BME280;10032;51.386;12.516;2023-06-22T00:23:55;100452.53;;;21.41;100.00
19748;BME280;10032;51.386;12.516;2023-06-22T00:26:23;100448.75;;;21.37;100.00
19748;BME280;10032;51.386;12.516;2023-06-22T00:28:48;100459.59;;;21.34;100.00
19748;BME280;10032;51.386;12.516;2023-06-22T00:31:14;100454.69;;;21.31;100.00
19748;BME280;10032;51.386;12.516;2023-06-22T00:33:39;100449.81;;;21.28;100.00
19748;BME280;10032;51.386;12.516;2023-06-22T00:36:05;100450.13;;;21.26;100.00
19748;BME280;10032;51.386;12.516;2023-06-22T00:38:33;100450.13;;;21.26;100.00
19748;BME280;10032;51.386;12.516;2023-06-22T00:40:58;100448.81;;;21.24;100.00
19748;BME280;10032;51.386;12.516;2023-06-22T00:43:24;100447.19;;;21.23;100.00
19748;BME280;10032;51.386;12.516;2023-06-22T00:45:49;100439.22;;;21.21;100.00
19748;BME280;10032;51.386;12.516;2023-06-22T00:48:15;100444.25;;;21.19;100.00
19748;BME280;10032;51.386;12.516;2023-06-22T00:50:40;100448.09;;;21.18;100.00
19748;BME280;10032;51.386;12.516;2023-06-22T00:53:08;100450.69;;;21.15;100.00
19748;BME280;10032;51.386;12.516;2023-06-22T00:55:38;100440.59;;;21.10;100.00
19748;BME280;10032;51.386;12.516;2023-06-22T00:58:09;100439.28;;;21.08;100.00
19748;BME280;10032;51.386;12.516;2023-06-22T01:00:36;100433.41;;;21.01;100.00
19748;BME280;10032;51.386;12.516;2023-06-22T01:03:03;100440.00;;;21.00;100.00
19748;BME280;10032;51.386;12.516;2023-06-22T01:05:28;100443.91;;;20.99;100.00
19748;BME280;10032;51.386;12.516;2023-06-22T01:08:03;100444.00;;;20.94;100.00
19748;BME280;10032;51.386;12.516;2023-06-22T01:10:41;100439.13;;;20.91;100.00
19748;BME280;10032;51.386;12.516;2023-06-22T01:16:16;100435.84;;;20.75;100.00
19748;BME280;10032;51.386;12.516;2023-06-22T01:18:44;100444.22;;;20.70;100.00
19748;BME280;10032;51.386;12.516;2023-06-22T01:21:14;100434.84;;;20.71;100.00
19748;BME280;10032;51.386;12.516;2023-06-22T01:29:04;100437.50;;;20.63;100.00
19748;BME280;10032;51.386;12.516;2023-06-22T01:31:31;100451.09;;;20.59;100.00
19748;BME280;10032;51.386;12.516;2023-06-22T01:34:00;100445.88;;;20.58;100.00
19748;BME280;10032;51.386;12.516;2023-06-22T01:36:27;100443.47;;;20.56;100.00
19748;BME280;10032;51.386;12.516;2023-06-22T01:38:53;100445.69;;;20.54;100.00
19748;BME280;10032;51.386;12.516;2023-06-22T01:41:20;100444.88;;;20.54;100.00
19748;BME280;10032;51.386;12.516;2023-06-22T01:43:47;100447.94;;;20.52;100.00
19748;BME280;10032;51.386;12.516;2023-06-22T01:46:13;100450.16;;;20.50;100.00
19748;BME280;10032;51.386;12.516;2023-06-22T01:48:39;100453.84;;;20.46;100.00
19748;BME280;10032;51.386;12.516;2023-06-22T01:51:05;100454.78;;;20.41;100.00
19748;BME280;10032;51.386;12.516;2023-06-22T01:53:31;100455.09;;;20.40;100.00
19748;BME280;10032;51.386;12.516;2023-06-22T01:55:57;100451.84;;;20.38;100.00
19748;BME280;10032;51.386;12.516;2023-06-22T01:58:26;100446.63;;;20.36;100.00
19748;BME280;10032;51.386;12.516;2023-06-22T02:00:57;100446.09;;;20.34;100.00
19748;BME280;10032;51.386;12.516;2023-06-22T02:03:32;100449.19;;;20.33;100.00
19748;BME280;10032;51.386;12.516;2023-06-22T02:06:06;100454.59;;;20.24;100.00
19748;BME280;10032;51.386;12.516;2023-06-22T02:08:48;100446.84;;;20.13;100.00
19748;BME280;10032;51.386;12.516;2023-06-22T02:11:17;100439.56;;;20.03;100.00
19748;BME280;10032;51.386;12.516;2023-06-22T02:13:44;100443.09;;;19.90;100.00
19748;BME280;10032;51.386;12.516;2023-06-22T02:16:12;100452.38;;;19.94;100.00
19748;BME280;10032;51.386;12.516;2023-06-22T02:18:38;100456.16;;;19.98;100.00
19748;BME280;10032;51.386;12.516;2023-06-22T02:21:05;100461.88;;;20.02;100.00
19748;BME280;10032;51.386;12.516;2023-06-22T02:23:31;100459.91;;;20.02;100.00
19748;BME280;10032;51.386;12.516;2023-06-22T02:25:58;100458.00;;;20.03;100.00
19748;BME280;10032;51.386;12.516;2023-06-22T02:28:23;100459.91;;;20.02;100.00
19748;BME280;10032;51.386;12.516;2023-06-22T02:30:49;100444.34;;;19.98;100.00
19748;BME280;10032;51.386;12.516;2023-06-22T02:33:14;100438.63;;;19.94;100.00
19748;BME280;10032;51.386;12.516;2023-06-22T02:35:39;100432.09;;;19.90;100.00
19748;BME280;10032;51.386;12.516;2023-06-22T02:38:10;100433.22;;;19.89;100.00
19748;BME280;10032;51.386;12.516;2023-06-22T02:40:36;100431.31;;;19.90;100.00
19748;BME280;10032;51.386;12.516;2023-06-22T02:43:02;100429.03;;;19.78;100.00
19748;BME280;10032;51.386;12.516;2023-06-22T02:45:28;100430.53;;;19.71;100.00
19748;BME280;10032;51.386;12.516;2023-06-22T02:47:54;100428.63;;;19.71;100.00
19748;BME280;10032;51.386;12.516;2023-06-22T02:50:20;100425.88;;;19.71;100.00
19748;BME280;10032;51.386;12.516;2023-06-22T02:52:45;100425.88;;;19.71;100.00
19748;BME280;10032;51.386;12.516;2023-06-22T02:55:10;100426.16;;;19.70;100.00
19748;BME280;10032;51.386;12.516;2023-06-22T02:57:36;100426.97;;;19.70;100.00
19748;BME280;10032;51.386;12.516;2023-06-22T03:00:05;100427.28;;;19.69;100.00
19748;BME280;10032;51.386;12.516;2023-06-22T03:02:41;100415.97;;;19.70;100.00
19748;BME280;10032;51.386;12.516;2023-06-22T03:05:07;100413.53;;;19.69;100.00
19748;BME280;10032;51.386;12.516;2023-06-22T03:07:35;100424.22;;;19.70;100.00
19748;BME280;10032;51.386;12.516;2023-06-22T03:10:00;100435.84;;;19.67;100.00
19748;BME280;10032;51.386;12.516;2023-06-22T03:12:25;100428.38;;;19.68;100.00
19748;BME280;10032;51.386;12.516;2023-06-22T03:14:51;100425.44;;;19.64;100.00
19748;BME280;10032;51.386;12.516;2023-06-22T03:17:17;100428.19;;;19.64;100.00
19748;BME280;10032;51.386;12.516;2023-06-22T03:19:42;100423.50;;;19.65;100.00
19748;BME280;10032;51.386;12.516;2023-06-22T03:22:08;100421.56;;;19.65;100.00
19748;BME280;10032;51.386;12.516;2023-06-22T03:24:33;100434.22;;;19.66;100.00
19748;BME280;10032;51.386;12.516;2023-06-22T03:26:59;100426.47;;;19.68;100.00
19748;BME280;10032;51.386;12.516;2023-06-22T03:29:25;100424.84;;;19.67;100.00
19748;BME280;10032;51.386;12.516;2023-06-22T03:31:51;100427.78;;;19.71;100.00
19748;BME280;10032;51.386;12.516;2023-06-22T03:34:16;100423.91;;;19.72;100.00
19748;BME280;10032;51.386;12.516;2023-06-22T03:36:41;100435.66;;;19.77;100.00
19748;BME280;10032;51.386;12.516;2023-06-22T03:39:07;100441.06;;;19.82;100.00
19748;BME280;10032;51.386;12.516;2023-06-22T03:41:33;100449.00;;;19.84;100.00
19748;BME280;10032;51.386;12.516;2023-06-22T03:43:58;100448.50;;;19.82;100.00
19748;BME280;10032;51.386;12.516;2023-06-22T03:46:24;100442.50;;;19.80;100.00
19748;BME280;10032;51.386;12.516;2023-06-22T03:48:49;100448.78;;;19.80;100.00
19748;BME280;10032;51.386;12.516;2023-06-22T03:51:14;100455.03;;;19.86;100.00
19748;BME280;10032;51.386;12.516;2023-06-22T03:53:40;100476.53;;;19.97;100.00
19748;BME280;10032;51.386;12.516;2023-06-22T03:56:05;100478.38;;;20.02;100.00
19748;BME280;10032;51.386;12.516;2023-06-22T03:58:31;100481.13;;;20.02;100.00
19748;BME280;10032;51.386;12.516;2023-06-22T04:00:58;100485.22;;;20.04;100.00
19748;BME280;10032;51.386;12.516;2023-06-22T04:03:25;100475.28;;;20.08;100.00
19748;BME280;10032;51.386;12.516;2023-06-22T04:05:50;100480.44;;;20.10;100.00
19748;BME280;10032;51.386;12.516;2023-06-22T04:08:16;100486.47;;;20.12;100.00
19748;BME280;10032;51.386;12.516;2023-06-22T04:10:41;100498.28;;;20.12;100.00
19748;BME280;10032;51.386;12.516;2023-06-22T04:13:07;100500.34;;;20.20;100.00
19748;BME280;10032;51.386;12.516;2023-06-22T04:15:32;100518.31;;;20.31;100.00
19748;BME280;10032;51.386;12.516;2023-06-22T04:17:58;100520.84;;;20.41;100.00
19748;BME280;10032;51.386;12.516;2023-06-22T04:20:23;100523.91;;;20.53;100.00
19748;BME280;10032;51.386;12.516;2023-06-22T04:22:54;100531.97;;;20.63;100.00
19748;BME280;10032;51.386;12.516;2023-06-22T04:25:20;100527.88;;;20.74;100.00
19748;BME280;10032;51.386;12.516;2023-06-22T04:27:47;100535.31;;;20.87;100.00
19748;BME280;10032;51.386;12.516;2023-06-22T04:30:13;100525.13;;;21.01;100.00
19748;BME280;10032;51.386;12.516;2023-06-22T04:32:42;100527.16;;;21.09;100.00
19748;BME280;10032;51.386;12.516;2023-06-22T04:35:08;100526.81;;;21.11;100.00
19748;BME280;10032;51.386;12.516;2023-06-22T04:37:34;100527.53;;;21.16;100.00
19748;BME280;10032;51.386;12.516;2023-06-22T04:39:59;100526.00;;;21.24;100.00
19748;BME280;10032;51.386;12.516;2023-06-22T04:42:26;100522.94;;;21.25;100.00
19748;BME280;10032;51.386;12.516;2023-06-22T04:44:52;100517.63;;;21.29;100.00
19748;BME280;10032;51.386;12.516;2023-06-22T04:47:17;100523.31;;;21.32;100.00
19748;BME280;10032;51.386;12.516;2023-06-22T04:49:42;100524.53;;;21.40;100.00
19748;BME280;10032;51.386;12.516;2023-06-22T04:52:11;100529.28;;;21.48;100.00
19748;BME280;10032;51.386;12.516;2023-06-22T04:54:38;100525.28;;;21.54;100.00
19748;BME280;10032;51.386;12.516;2023-06-22T04:57:06;100516.38;;;21.57;100.00
19748;BME280;10032;51.386;12.516;2023-06-22T04:59:35;100520.16;;;21.61;100.00
19748;BME280;10032;51.386;12.516;2023-06-22T05:02:02;100512.06;;;21.64;100.00
19748;BME280;10032;51.386;12.516;2023-06-22T05:04:29;100515.22;;;21.71;100.00
19748;BME280;10032;51.386;12.516;2023-06-22T05:06:58;100502.56;;;21.70;100.00
19748;BME280;10032;51.386;12.516;2023-06-22T05:09:25;100490.91;;;21.73;100.00
19748;BME280;10032;51.386;12.516;2023-06-22T05:11:50;100497.44;;;21.77;100.00
19748;BME280;10032;51.386;12.516;2023-06-22T05:14:16;100500.03;;;21.82;100.00
19748;BME280;10032;51.386;12.516;2023-06-22T05:16:42;100490.50;;;21.88;100.00
19748;BME280;10032;51.386;12.516;2023-06-22T05:19:08;100492.63;;;21.91;100.00
19748;BME280;10032;51.386;12.516;2023-06-22T05:21:34;100490.56;;;21.97;100.00
19748;BME280;10032;51.386;12.516;2023-06-22T05:24:00;100492.66;;;22.00;100.00
19748;BME280;10032;51.386;12.516;2023-06-22T05:26:28;100477.41;;;22.02;100.00
19748;BME280;10032;51.386;12.516;2023-06-22T05:28:54;100464.31;;;22.08;100.00
19748;BME280;10032;51.386;12.516;2023-06-22T05:31:20;100453.03;;;22.26;100.00
19748;BME280;10032;51.386;12.516;2023-06-22T05:33:46;100446.34;;;22.66;100.00
19748;BME280;10032;51.386;12.516;2023-06-22T05:36:12;100440.22;;;23.12;100.00
19748;BME280;10032;51.386;12.516;2023-06-22T05:38:38;100432.09;;;23.41;100.00
19748;BME280;10032;51.386;12.516;2023-06-22T05:41:04;100419.88;;;23.50;100.00
19748;BME280;10032;51.386;12.516;2023-06-22T05:43:30;100414.34;;;23.50;100.00
19748;BME280;10032;51.386;12.516;2023-06-22T05:45:56;100390.63;;;23.32;100.00
19748;BME280;10032;51.386;12.516;2023-06-22T05:48:21;100380.72;;;23.31;100.00
19748;BME280;10032;51.386;12.516;2023-06-22T05:50:47;100380.16;;;23.63;100.00
19748;BME280;10032;51.386;12.516;2023-06-22T05:53:12;100390.66;;;23.87;100.00
19748;BME280;10032;51.386;12.516;2023-06-22T05:55:37;100390.03;;;24.19;100.00
19748;BME280;10032;51.386;12.516;2023-06-22T05:58:03;100398.47;;;24.51;100.00
19748;BME280;10032;51.386;12.516;2023-06-22T06:00:29;100392.00;;;24.76;100.00
19748;BME280;10032;51.386;12.516;2023-06-22T06:02:54;100386.84;;;25.07;100.00
19748;BME280;10032;51.386;12.516;2023-06-22T06:05:20;100384.25;;;25.23;100.00
19748;BME280;10032;51.386;12.516;2023-06-22T06:07:45;100379.84;;;25.42;100.00
19748;BME280;10032;51.386;12.516;2023-06-22T06:10:11;100373.69;;;25.69;100.00
19748;BME280;10032;51.386;12.516;2023-06-22T06:12:37;100375.91;;;25.76;100.00
19748;BME280;10032;51.386;12.516;2023-06-22T06:15:03;100376.50;;;25.93;100.00
19748;BME280;10032;51.386;12.516;2023-06-22T06:17:28;100377.56;;;26.01;100.00
19748;BME280;10032;51.386;12.516;2023-06-22T06:19:54;100388.59;;;26.21;100.00
19748;BME280;10032;51.386;12.516;2023-06-22T06:22:19;100393.66;;;26.19;100.00
19748;BME280;10032;51.386;12.516;2023-06-22T06:24:47;100396.34;;;25.83;100.00
19748;BME280;10032;51.386;12.516;2023-06-22T06:27:13;100399.41;;;25.78;100.00
19748;BME280;10032;51.386;12.516;2023-06-22T06:29:39;100393.88;;;26.14;100.00
19748;BME280;10032;51.386;12.516;2023-06-22T06:32:04;100401.28;;;26.46;100.00
19748;BME280;10032;51.386;12.516;2023-06-22T06:34:29;100413.34;;;26.50;100.00
19748;BME280;10032;51.386;12.516;2023-06-22T06:36:55;100414.63;;;26.53;100.00
19748;BME280;10032;51.386;12.516;2023-06-22T06:39:20;100429.09;;;26.46;100.00
19748;BME280;10032;51.386;12.516;2023-06-22T06:41:46;100431.06;;;26.22;100.00
19748;BME280;10032;51.386;12.516;2023-06-22T06:44:12;100432.78;;;26.02;100.00
19748;BME280;10032;51.386;12.516;2023-06-22T06:46:37;100433.50;;;26.11;100.00
19748;BME280;10032;51.386;12.516;2023-06-22T06:49:03;100433.72;;;26.06;100.00
19748;BME280;10032;51.386;12.516;2023-06-22T06:51:28;100430.44;;;25.92;100.00
19748;BME280;10032;51.386;12.516;2023-06-22T06:53:54;100434.06;;;26.05;100.00
19748;BME280;10032;51.386;12.516;2023-06-22T06:56:20;100439.50;;;26.13;100.00
19748;BME280;10032;51.386;12.516;2023-06-22T06:58:45;100431.66;;;26.27;100.00
19748;BME280;10032;51.386;12.516;2023-06-22T07:01:11;100433.72;;;26.30;100.00
19748;BME280;10032;51.386;12.516;2023-06-22T07:03:37;100427.84;;;26.56;100.00
19748;BME280;10032;51.386;12.516;2023-06-22T07:06:03;100429.31;;;26.89;100.00
19748;BME280;10032;51.386;12.516;2023-06-22T07:08:28;100436.91;;;27.16;100.00
19748;BME280;10032;51.386;12.516;2023-06-22T07:10:54;100439.75;;;27.32;100.00
19748;BME280;10032;51.386;12.516;2023-06-22T07:13:19;100426.28;;;27.34;100.00
19748;BME280;10032;51.386;12.516;2023-06-22T07:15:45;100423.88;;;27.32;100.00
19748;BME280;10032;51.386;12.516;2023-06-22T07:18:10;100437.69;;;27.29;100.00
19748;BME280;10032;51.386;12.516;2023-06-22T07:20:35;100434.63;;;27.46;100.00
19748;BME280;10032;51.386;12.516;2023-06-22T07:23:01;100434.38;;;27.66;100.00
19748;BME280;10032;51.386;12.516;2023-06-22T07:25:26;100415.31;;;27.80;100.00
19748;BME280;10032;51.386;12.516;2023-06-22T07:28:01;100423.84;;;27.87;100.00
19748;BME280;10032;51.386;12.516;2023-06-22T07:30:28;100427.38;;;28.00;100.00
19748;BME280;10032;51.386;12.516;2023-06-22T07:32:53;100422.44;;;28.24;100.00
19748;BME280;10032;51.386;12.516;2023-06-22T07:35:19;100418.75;;;28.51;100.00
19748;BME280;10032;51.386;12.516;2023-06-22T07:37:45;100413.69;;;28.91;100.00
19748;BME280;10032;51.386;12.516;2023-06-22T07:40:11;100418.88;;;29.08;100.00
19748;BME280;10032;51.386;12.516;2023-06-22T07:42:37;100414.78;;;29.02;100.00
19748;BME280;10032;51.386;12.516;2023-06-22T07:45:06;100409.94;;;29.18;100.00
19748;BME280;10032;51.386;12.516;2023-06-22T07:47:33;100402.28;;;29.34;97.11
19748;BME280;10032;51.386;12.516;2023-06-22T07:50:01;100400.81;;;29.40;96.47
19748;BME280;10032;51.386;12.516;2023-06-22T07:52:30;100409.63;;;29.61;100.00
19748;BME280;10032;51.386;12.516;2023-06-22T07:54:56;100417.53;;;29.56;96.93
19748;BME280;10032;51.386;12.516;2023-06-22T07:57:21;100410.22;;;29.70;98.16
19748;BME280;10032;51.386;12.516;2023-06-22T07:59:47;100400.94;;;29.85;94.75
19748;BME280;10032;51.386;12.516;2023-06-22T08:02:12;100411.94;;;29.78;91.47
19748;BME280;10032;51.386;12.516;2023-06-22T08:04:40;100419.59;;;29.81;90.80
19748;BME280;10032;51.386;12.516;2023-06-22T08:07:06;100407.50;;;29.96;91.96
19748;BME280;10032;51.386;12.516;2023-06-22T08:09:32;100406.63;;;30.11;91.94
19748;BME280;10032;51.386;12.516;2023-06-22T08:11:58;100408.34;;;30.19;90.19
19748;BME280;10032;51.386;12.516;2023-06-22T08:14:30;100400.72;;;30.42;89.22
19748;BME280;10032;51.386;12.516;2023-06-22T08:16:55;100399.72;;;30.31;82.13
19748;BME280;10032;51.386;12.516;2023-06-22T08:19:20;100397.66;;;30.51;87.18
19748;BME280;10032;51.386;12.516;2023-06-22T08:21:46;100386.75;;;30.68;84.22
19748;BME280;10032;51.386;12.516;2023-06-22T08:24:11;100392.22;;;30.61;82.47
19748;BME280;10032;51.386;12.516;2023-06-22T08:26:37;100391.47;;;30.90;83.86
19748;BME280;10032;51.386;12.516;2023-06-22T08:29:03;100389.63;;;31.01;81.48
19748;BME280;10032;51.386;12.516;2023-06-22T08:31:29;100387.31;;;31.10;81.43
19748;BME280;10032;51.386;12.516;2023-06-22T08:33:55;100386.50;;;31.06;79.99
19748;BME280;10032;51.386;12.516;2023-06-22T08:36:21;100389.78;;;31.15;78.70
19748;BME280;10032;51.386;12.516;2023-06-22T08:38:46;100391.50;;;31.20;78.45
19748;BME280;10032;51.386;12.516;2023-06-22T08:41:16;100384.41;;;31.29;77.69
19748;BME280;10032;51.386;12.516;2023-06-22T08:43:43;100390.09;;;31.36;74.84
19748;BME280;10032;51.386;12.516;2023-06-22T08:46:09;100396.28;;;31.19;76.13
19748;BME280;10032;51.386;12.516;2023-06-22T08:48:35;100387.16;;;31.26;76.65
19748;BME280;10032;51.386;12.516;2023-06-22T08:51:00;100391.84;;;31.18;74.70
19748;BME280;10032;51.386;12.516;2023-06-22T08:53:26;100386.94;;;31.12;73.32
19748;BME280;10032;51.386;12.516;2023-06-22T08:55:51;100392.19;;;31.13;74.72
19748;BME280;10032;51.386;12.516;2023-06-22T08:58:16;100386.56;;;31.13;73.80
19748;BME280;10032;51.386;12.516;2023-06-22T09:00:43;100380.91;;;31.06;72.40
19748;BME280;10032;51.386;12.516;2023-06-22T09:03:08;100389.00;;;31.15;73.15
19748;BME280;10032;51.386;12.516;2023-06-22T09:05:34;100387.97;;;31.26;73.93
19748;BME280;10032;51.386;12.516;2023-06-22T09:07:59;100384.22;;;31.19;70.84
19748;BME280;10032;51.386;12.516;2023-06-22T09:10:25;100389.72;;;31.38;71.21
19748;BME280;10032;51.386;12.516;2023-06-22T09:12:51;100380.97;;;31.43;70.44
19748;BME280;10032;51.386;12.516;2023-06-22T09:15:17;100384.22;;;31.81;73.12
19748;BME280;10032;51.386;12.516;2023-06-22T09:17:42;100377.94;;;31.98;70.04
19748;BME280;10032;51.386;12.516;2023-06-22T09:20:09;100381.97;;;31.97;68.37
19748;BME280;10032;51.386;12.516;2023-06-22T09:22:36;100368.84;;;32.12;68.39
19748;BME280;10032;51.386;12.516;2023-06-22T09:25:01;100364.50;;;32.18;67.00
19748;BME280;10032;51.386;12.516;2023-06-22T09:27:28;100365.34;;;32.22;66.19
19748;BME280;10032;51.386;12.516;2023-06-22T09:29:53;100363.03;;;32.31;66.57
19748;BME280;10032;51.386;12.516;2023-06-22T09:32:19;100354.78;;;32.55;64.53
19748;BME280;10032;51.386;12.516;2023-06-22T09:34:44;100353.22;;;32.61;65.41
19748;BME280;10032;51.386;12.516;2023-06-22T09:37:09;100333.69;;;32.82;65.75
19748;BME280;10032;51.386;12.516;2023-06-22T09:39:35;100346.41;;;32.66;64.73
19748;BME280;10032;51.386;12.516;2023-06-22T09:42:02;100352.13;;;32.80;63.04
19748;BME280;10032;51.386;12.516;2023-06-22T09:44:27;100345.81;;;33.00;62.34
19748;BME280;10032;51.386;12.516;2023-06-22T09:46:52;100341.84;;;33.05;61.42
19748;BME280;10032;51.386;12.516;2023-06-22T09:49:18;100333.81;;;33.10;61.15
19748;BME280;10032;51.386;12.516;2023-06-22T09:51:43;100326.69;;;33.34;61.86
19748;BME280;10032;51.386;12.516;2023-06-22T09:54:09;100331.44;;;33.26;61.32
19748;BME280;10032;51.386;12.516;2023-06-22T09:56:34;100331.44;;;33.19;59.33
19748;BME280;10032;51.386;12.516;2023-06-22T09:58:59;100329.78;;;33.01;59.36
19748;BME280;10032;51.386;12.516;2023-06-22T10:01:25;100326.94;;;32.97;59.63
19748;BME280;10032;51.386;12.516;2023-06-22T10:03:52;100319.22;;;32.77;58.48
19748;BME280;10032;51.386;12.516;2023-06-22T10:06:21;100324.75;;;32.66;58.47
19748;BME280;10032;51.386;12.516;2023-06-22T10:08:46;100320.72;;;32.60;58.04
19748;BME280;10032;51.386;12.516;2023-06-22T10:11:13;100320.66;;;32.53;56.37
19748;BME280;10032;51.386;12.516;2023-06-22T10:13:38;100319.56;;;32.72;56.71
19748;BME280;10032;51.386;12.516;2023-06-22T10:16:04;100309.75;;;33.13;57.03
19748;BME280;10032;51.386;12.516;2023-06-22T10:18:29;100304.59;;;33.32;55.59
19748;BME280;10032;51.386;12.516;2023-06-22T10:20:55;100311.78;;;33.19;54.76
19748;BME280;10032;51.386;12.516;2023-06-22T10:23:21;100300.06;;;32.96;54.74
19748;BME280;10032;51.386;12.516;2023-06-22T10:25:47;100293.63;;;32.96;55.28
19748;BME280;10032;51.386;12.516;2023-06-22T10:28:12;100294.47;;;33.03;54.68
19748;BME280;10032;51.386;12.516;2023-06-22T10:30:41;100294.59;;;33.45;54.30
19748;BME280;10032;51.386;12.516;2023-06-22T10:33:11;100290.63;;;33.78;54.87
19748;BME280;10032;51.386;12.516;2023-06-22T10:35:37;100293.03;;;33.83;53.26
19748;BME280;10032;51.386;12.516;2023-06-22T10:38:03;100281.38;;;33.70;52.30
19748;BME280;10032;51.386;12.516;2023-06-22T10:40:29;100285.81;;;33.78;52.25
19748;BME280;10032;51.386;12.516;2023-06-22T10:42:54;100276.16;;;33.93;50.86
19748;BME280;10032;51.386;12.516;2023-06-22T10:45:19;100283.75;;;33.72;50.03
19748;BME280;10032;51.386;12.516;2023-06-22T10:47:45;100280.94;;;33.68;51.22
19748;BME280;10032;51.386;12.516;2023-06-22T10:50:11;100277.75;;;34.12;52.02
19748;BME280;10032;51.386;12.516;2023-06-22T10:52:36;100272.50;;;34.17;50.08
19748;BME280;10032;51.386;12.516;2023-06-22T10:55:02;100272.13;;;34.12;48.49
19748;BME280;10032;51.386;12.516;2023-06-22T10:57:27;100280.19;;;34.31;50.18
19748;BME280;10032;51.386;12.516;2023-06-22T10:59:53;100263.63;;;34.43;47.47
19748;BME280;10032;51.386;12.516;2023-06-22T11:02:18;100263.94;;;34.70;49.71
19748;BME280;10032;51.386;12.516;2023-06-22T11:04:44;100269.03;;;35.06;49.60
19748;BME280;10032;51.386;12.516;2023-06-22T11:07:09;100262.16;;;35.11;48.50
19748;BME280;10032;51.386;12.516;2023-06-22T11:09:35;100253.59;;;35.28;48.46
19748;BME280;10032;51.386;12.516;2023-06-22T11:12:00;100252.84;;;35.24;46.93
19748;BME280;10032;51.386;12.516;2023-06-22T11:14:26;100259.69;;;35.23;47.26
19748;BME280;10032;51.386;12.516;2023-06-22T11:16:52;100246.88;;;35.08;46.50
19748;BME280;10032;51.386;12.516;2023-06-22T11:19:18;100245.41;;;34.79;45.58
19748;BME280;10032;51.386;12.516;2023-06-22T11:21:44;100240.59;;;34.80;45.99
19748;BME280;10032;51.386;12.516;2023-06-22T11:24:09;100237.06;;;34.51;45.90
19748;BME280;10032;51.386;12.516;2023-06-22T11:26:35;100240.72;;;34.38;46.84
19748;BME280;10032;51.386;12.516;2023-06-22T11:29:02;100242.72;;;34.37;45.99
19748;BME280;10032;51.386;12.516;2023-06-22T11:31:31;100236.19;;;34.65;46.09
19748;BME280;10032;51.386;12.516;2023-06-22T11:33:56;100240.50;;;34.97;46.21
19748;BME280;10032;51.386;12.516;2023-06-22T11:36:21;100231.63;;;35.02;45.88
19748;BME280;10032;51.386;12.516;2023-06-22T11:38:47;100230.09;;;34.87;45.09
19748;BME280;10032;51.386;12.516;2023-06-22T11:41:13;100234.19;;;34.62;45.33
19748;BME280;10032;51.386;12.516;2023-06-22T11:43:39;100226.22;;;34.46;45.54
19748;BME280;10032;51.386;12.516;2023-06-22T11:46:04;100234.69;;;34.43;45.32
19748;BME280;10032;51.386;12.516;2023-06-22T11:48:30;100224.25;;;34.26;45.87
19748;BME280;10032;51.386;12.516;2023-06-22T11:50:56;100227.44;;;34.38;46.60
19748;BME280;10032;51.386;12.516;2023-06-22T11:53:26;100223.69;;;34.80;46.75
19748;BME280;10032;51.386;12.516;2023-06-22T11:55:51;100219.16;;;34.96;46.68
19748;BME280;10032;51.386;12.516;2023-06-22T11:58:19;100216.16;;;35.31;45.62
19748;BME280;10032;51.386;12.516;2023-06-22T12:00:44;100212.16;;;35.25;45.48
19748;BME280;10032;51.386;12.516;2023-06-22T12:03:10;100206.72;;;34.90;45.12
19748;BME280;10032;51.386;12.516;2023-06-22T12:05:37;100211.41;;;35.14;45.22
19748;BME280;10032;51.386;12.516;2023-06-22T12:08:03;100206.69;;;35.55;45.25
19748;BME280;10032;51.386;12.516;2023-06-22T12:10:28;100196.56;;;35.61;44.74
19748;BME280;10032;51.386;12.516;2023-06-22T12:12:54;100193.13;;;35.88;44.82
19748;BME280;10032;51.386;12.516;2023-06-22T12:15:19;100174.50;;;35.93;44.22
19748;BME280;10032;51.386;12.516;2023-06-22T12:17:45;100183.34;;;35.95;44.97
19748;BME280;10032;51.386;12.516;2023-06-22T12:20:11;100177.09;;;35.78;43.20
19748;BME280;10032;51.386;12.516;2023-06-22T12:22:36;100172.78;;;35.62;44.74
19748;BME280;10032;51.386;12.516;2023-06-22T12:25:03;100165.63;;;35.95;44.23
19748;BME280;10032;51.386;12.516;2023-06-22T12:27:29;100157.72;;;35.79;43.37
19748;BME280;10032;51.386;12.516;2023-06-22T12:29:56;100164.13;;;35.36;43.36
19748;BME280;10032;51.386;12.516;2023-06-22T12:32:21;100161.69;;;35.41;43.32
19748;BME280;10032;51.386;12.516;2023-06-22T12:34:46;100155.31;;;35.82;44.10
19748;BME280;10032;51.386;12.516;2023-06-22T12:37:12;100146.19;;;36.00;43.86